sensor_id;sensor_type;location;lat;lon;timestamp;P1;durP1;ratioP1;P2;durP2;ratioP2
63906;SDS011;50075;49.484;11.238;2022-10-31T00:00:28;31.85;;;10.50;;
63906;SDS011;50075;49.484;11.238;2022-10-31T00:02:53;40.75;;;10.18;;
63906;SDS011;50075;49.484;11.238;2022-10-31T00:05:19;35.33;;;9.63;;
63906;SDS011;50075;49.484;11.238;2022-10-31T00:07:44;29.98;;;9.57;;
63906;SDS011;50075;49.484;11.238;2022-10-31T00:10:09;42.08;;;10.77;;
63906;SDS011;50075;49.484;11.238;2022-10-31T00:12:35;33.45;;;9.50;;
63906;SDS011;50075;49.484;11.238;2022-10-31T00:15:00;34.65;;;9.07;;
63906;SDS011;50075;49.484;11.238;2022-10-31T00:17:25;30.00;;;8.95;;
63906;SDS011;50075;49.484;11.238;2022-10-31T00:19:51;35.28;;;9.40;;
63906;SDS011;50075;49.484;11.238;2022-10-31T00:22:16;35.72;;;9.80;;
63906;SDS011;50075;49.484;11.238;2022-10-31T00:24:41;34.03;;;8.60;;
63906;SDS011;50075;49.484;11.238;2022-10-31T00:27:07;39.15;;;10.20;;
63906;SDS011;50075;49.484;11.238;2022-10-31T00:29:32;41.15;;;10.48;;
63906;SDS011;50075;49.484;11.238;2022-10-31T00:31:57;36.08;;;9.98;;
63906;SDS011;50075;49.484;11.238;2022-10-31T00:34:23;35.13;;;9.57;;
63906;SDS011;50075;49.484;11.238;2022-10-31T00:36:48;27.65;;;8.45;;
63906;SDS011;50075;49.484;11.238;2022-10-31T00:39:13;31.15;;;9.18;;
63906;SDS011;50075;49.484;11.238;2022-10-31T00:41:39;36.05;;;9.55;;
63906;SDS011;50075;49.484;11.238;2022-10-31T00:44:04;29.55;;;9.00;;
63906;SDS011;50075;49.484;11.238;2022-10-31T00:46:29;31.70;;;9.50;;
63906;SDS011;50075;49.484;11.238;2022-10-31T00:48:55;36.47;;;10.57;;
63906;SDS011;50075;49.484;11.238;2022-10-31T00:51:20;29.33;;;8.60;;
63906;SDS011;50075;49.484;11.238;2022-10-31T00:53:45;26.33;;;8.77;;
63906;SDS011;50075;49.484;11.238;2022-10-31T00:56:11;33.63;;;10.30;;
63906;SDS011;50075;49.484;11.238;2022-10-31T00:58:36;29.40;;;8.65;;
63906;SDS011;50075;49.484;11.238;2022-10-31T01:01:02;30.08;;;8.48;;
63906;SDS011;50075;49.484;11.238;2022-10-31T01:03:28;28.10;;;8.32;;
63906;SDS011;50075;49.484;11.238;2022-10-31T01:06:06;29.00;;;7.70;;
63906;SDS011;50075;49.484;11.238;2022-10-31T01:08:34;34.05;;;9.13;;
63906;SDS011;50075;49.484;11.238;2022-10-31T01:13:35;36.47;;;9.80;;
63906;SDS011;50075;49.484;11.238;2022-10-31T01:16:01;34.47;;;9.30;;
63906;SDS011;50075;49.484;11.238;2022-10-31T01:18:27;35.72;;;9.18;;
63906;SDS011;50075;49.484;11.238;2022-10-31T01:21:06;29.73;;;9.57;;
63906;SDS011;50075;49.484;11.238;2022-10-31T01:23:33;33.42;;;8.82;;
63906;SDS011;50075;49.484;11.238;2022-10-31T01:26:00;32.42;;;9.13;;
63906;SDS011;50075;49.484;11.238;2022-10-31T01:28:28;32.15;;;9.45;;
63906;SDS011;50075;49.484;11.238;2022-10-31T01:30:53;36.83;;;10.48;;
63906;SDS011;50075;49.484;11.238;2022-10-31T01:33:19;29.77;;;9.05;;
63906;SDS011;50075;49.484;11.238;2022-10-31T01:35:44;30.67;;;8.68;;
63906;SDS011;50075;49.484;11.238;2022-10-31T01:38:09;29.73;;;8.80;;
63906;SDS011;50075;49.484;11.238;2022-10-31T01:40:35;22.15;;;7.18;;
63906;SDS011;50075;49.484;11.238;2022-10-31T01:43:00;32.83;;;8.75;;
63906;SDS011;50075;49.484;11.238;2022-10-31T01:45:25;30.02;;;8.35;;
63906;SDS011;50075;49.484;11.238;2022-10-31T01:47:50;32.25;;;8.13;;
63906;SDS011;50075;49.484;11.238;2022-10-31T01:50:35;29.58;;;8.88;;
63906;SDS011;50075;49.484;11.238;2022-10-31T01:53:03;33.72;;;8.52;;
63906;SDS011;50075;49.484;11.238;2022-10-31T01:55:34;32.83;;;9.82;;
63906;SDS011;50075;49.484;11.238;2022-10-31T01:58:07;37.10;;;9.77;;
63906;SDS011;50075;49.484;11.238;2022-10-31T02:00:36;32.03;;;9.18;;
63906;SDS011;50075;49.484;11.238;2022-10-31T02:03:03;38.78;;;9.70;;
63906;SDS011;50075;49.484;11.238;2022-10-31T02:05:29;30.40;;;9.52;;
63906;SDS011;50075;49.484;11.238;2022-10-31T02:07:57;28.73;;;8.57;;
63906;SDS011;50075;49.484;11.238;2022-10-31T02:10:27;29.10;;;8.95;;
63906;SDS011;50075;49.484;11.238;2022-10-31T02:12:56;27.77;;;7.40;;
63906;SDS011;50075;49.484;11.238;2022-10-31T02:15:23;30.63;;;9.05;;
63906;SDS011;50075;49.484;11.238;2022-10-31T02:17:49;34.17;;;9.30;;
63906;SDS011;50075;49.484;11.238;2022-10-31T02:20:16;28.80;;;8.23;;
63906;SDS011;50075;49.484;11.238;2022-10-31T02:39:18;26.92;;;7.85;;
63906;SDS011;50075;49.484;11.238;2022-10-31T02:52:22;29.77;;;8.10;;
63906;SDS011;50075;49.484;11.238;2022-10-31T02:54:50;31.50;;;8.70;;
63906;SDS011;50075;49.484;11.238;2022-10-31T02:57:17;34.10;;;9.07;;
63906;SDS011;50075;49.484;11.238;2022-10-31T02:59:49;36.90;;;9.02;;
63906;SDS011;50075;49.484;11.238;2022-10-31T03:10:49;29.77;;;8.68;;
63906;SDS011;50075;49.484;11.238;2022-10-31T03:15:51;30.35;;;8.70;;
63906;SDS011;50075;49.484;11.238;2022-10-31T03:18:32;31.50;;;8.70;;
63906;SDS011;50075;49.484;11.238;2022-10-31T03:21:04;32.55;;;8.52;;
63906;SDS011;50075;49.484;11.238;2022-10-31T03:23:34;28.27;;;7.85;;
63906;SDS011;50075;49.484;11.238;2022-10-31T03:26:02;38.97;;;9.27;;
63906;SDS011;50075;49.484;11.238;2022-10-31T03:28:31;28.40;;;7.95;;
63906;SDS011;50075;49.484;11.238;2022-10-31T03:31:02;34.75;;;9.35;;
63906;SDS011;50075;49.484;11.238;2022-10-31T03:33:30;30.77;;;;;
63906;SDS011;50075;49.484;11.238;2022-10-31T03:36:05;25.75;;;7.28;;
63906;SDS011;50075;49.484;11.238;2022-10-31T03:38:35;29.85;;;7.60;;
63906;SDS011;50075;49.484;11.238;2022-10-31T03:41:02;27.35;;;8.00;;
63906;SDS011;50075;49.484;11.238;2022-10-31T03:43:32;32.22;;;8.45;;
63906;SDS011;50075;49.484;11.238;2022-10-31T03:46:01;32.13;;;8.45;;
63906;SDS011;50075;49.484;11.238;2022-10-31T03:48:27;29.40;;;7.55;;
63906;SDS011;50075;49.484;11.238;2022-10-31T03:53:31;29.55;;;7.97;;
63906;SDS011;50075;49.484;11.238;2022-10-31T03:56:03;28.95;;;7.85;;
63906;SDS011;50075;49.484;11.238;2022-10-31T03:59:30;22.45;;;6.82;;
63906;SDS011;50075;49.484;11.238;2022-10-31T04:01:39;28.40;;;7.63;;
63906;SDS011;50075;49.484;11.238;2022-10-31T04:04:09;32.67;;;8.70;;
63906;SDS011;50075;49.484;11.238;2022-10-31T04:06:36;29.08;;;7.63;;
63906;SDS011;50075;49.484;11.238;2022-10-31T04:09:04;33.67;;;8.13;;
63906;SDS011;50075;49.484;11.238;2022-10-31T04:11:33;35.78;;;9.20;;
63906;SDS011;50075;49.484;11.238;2022-10-31T04:14:04;26.33;;;8.02;;
63906;SDS011;50075;49.484;11.238;2022-10-31T04:16:30;30.10;;;8.05;;
63906;SDS011;50075;49.484;11.238;2022-10-31T04:18:56;24.63;;;7.45;;
63906;SDS011;50075;49.484;11.238;2022-10-31T04:21:28;26.90;;;7.13;;
63906;SDS011;50075;49.484;11.238;2022-10-31T04:23:54;27.13;;;7.03;;
63906;SDS011;50075;49.484;11.238;2022-10-31T04:26:20;25.83;;;7.05;;
63906;SDS011;50075;49.484;11.238;2022-10-31T04:28:46;30.83;;;7.22;;
63906;SDS011;50075;49.484;11.238;2022-10-31T04:31:11;26.25;;;7.53;;
63906;SDS011;50075;49.484;11.238;2022-10-31T04:33:39;30.23;;;6.70;;
63906;SDS011;50075;49.484;11.238;2022-10-31T04:36:05;24.98;;;6.95;;
63906;SDS011;50075;49.484;11.238;2022-10-31T04:38:30;25.48;;;7.20;;
63906;SDS011;50075;49.484;11.238;2022-10-31T04:40:56;30.50;;;7.90;;
63906;SDS011;50075;49.484;11.238;2022-10-31T04:43:21;29.38;;;7.45;;
63906;SDS011;50075;49.484;11.238;2022-10-31T04:45:47;30.92;;;7.20;;
63906;SDS011;50075;49.484;11.238;2022-10-31T04:48:12;31.90;;;8.55;;
63906;SDS011;50075;49.484;11.238;2022-10-31T04:50:38;33.85;;;9.07;;
63906;SDS011;50075;49.484;11.238;2022-10-31T04:53:03;33.67;;;8.75;;
63906;SDS011;50075;49.484;11.238;2022-10-31T04:55:28;27.15;;;8.05;;
63906;SDS011;50075;49.484;11.238;2022-10-31T04:57:54;28.80;;;8.20;;
63906;SDS011;50075;49.484;11.238;2022-10-31T05:00:19;34.47;;;8.77;;
63906;SDS011;50075;49.484;11.238;2022-10-31T05:02:47;31.50;;;7.90;;
63906;SDS011;50075;49.484;11.238;2022-10-31T05:05:13;35.72;;;8.55;;
63906;SDS011;50075;49.484;11.238;2022-10-31T05:07:40;26.08;;;7.25;;
63906;SDS011;50075;49.484;11.238;2022-10-31T05:10:06;34.17;;;8.85;;
63906;SDS011;50075;49.484;11.238;2022-10-31T05:12:34;27.75;;;7.40;;
63906;SDS011;50075;49.484;11.238;2022-10-31T05:15:00;34.05;;;8.60;;
63906;SDS011;50075;49.484;11.238;2022-10-31T05:17:25;30.17;;;7.63;;
63906;SDS011;50075;49.484;11.238;2022-10-31T05:19:50;29.58;;;7.22;;
63906;SDS011;50075;49.484;11.238;2022-10-31T05:22:16;33.17;;;7.60;;
63906;SDS011;50075;49.484;11.238;2022-10-31T05:24:41;26.38;;;7.53;;
63906;SDS011;50075;49.484;11.238;2022-10-31T05:27:06;22.92;;;6.28;;
63906;SDS011;50075;49.484;11.238;2022-10-31T05:29:31;33.90;;;8.23;;
63906;SDS011;50075;49.484;11.238;2022-10-31T05:31:58;27.65;;;6.47;;
63906;SDS011;50075;49.484;11.238;2022-10-31T05:34:24;27.85;;;6.70;;
63906;SDS011;50075;49.484;11.238;2022-10-31T05:36:49;25.08;;;6.82;;
63906;SDS011;50075;49.484;11.238;2022-10-31T05:39:14;22.30;;;6.65;;
63906;SDS011;50075;49.484;11.238;2022-10-31T05:41:40;37.55;;;8.45;;
63906;SDS011;50075;49.484;11.238;2022-10-31T05:44:05;27.95;;;7.75;;
63906;SDS011;50075;49.484;11.238;2022-10-31T05:46:30;29.48;;;7.18;;
63906;SDS011;50075;49.484;11.238;2022-10-31T05:48:56;29.42;;;6.88;;
63906;SDS011;50075;49.484;11.238;2022-10-31T05:51:21;25.30;;;6.05;;
63906;SDS011;50075;49.484;11.238;2022-10-31T05:53:46;31.08;;;7.20;;
63906;SDS011;50075;49.484;11.238;2022-10-31T05:56:12;30.77;;;7.65;;
63906;SDS011;50075;49.484;11.238;2022-10-31T05:58:38;25.67;;;6.78;;
63906;SDS011;50075;49.484;11.238;2022-10-31T06:01:03;31.08;;;8.85;;
63906;SDS011;50075;49.484;11.238;2022-10-31T06:03:29;26.58;;;7.50;;
63906;SDS011;50075;49.484;11.238;2022-10-31T06:05:54;40.83;;;8.82;;
63906;SDS011;50075;49.484;11.238;2022-10-31T06:08:20;24.17;;;6.80;;
63906;SDS011;50075;49.484;11.238;2022-10-31T06:10:45;26.75;;;6.72;;
63906;SDS011;50075;49.484;11.238;2022-10-31T06:13:10;24.52;;;7.72;;
63906;SDS011;50075;49.484;11.238;2022-10-31T06:15:36;27.85;;;6.63;;
63906;SDS011;50075;49.484;11.238;2022-10-31T06:18:02;30.58;;;7.78;;
63906;SDS011;50075;49.484;11.238;2022-10-31T06:20:29;30.02;;;7.90;;
63906;SDS011;50075;49.484;11.238;2022-10-31T06:22:55;26.38;;;8.43;;
63906;SDS011;50075;49.484;11.238;2022-10-31T06:25:20;30.88;;;8.48;;
63906;SDS011;50075;49.484;11.238;2022-10-31T06:27:46;32.75;;;9.20;;
63906;SDS011;50075;49.484;11.238;2022-10-31T06:30:11;38.08;;;9.70;;
63906;SDS011;50075;49.484;11.238;2022-10-31T06:32:37;35.75;;;9.07;;
63906;SDS011;50075;49.484;11.238;2022-10-31T06:35:02;33.22;;;8.85;;
63906;SDS011;50075;49.484;11.238;2022-10-31T06:37:28;34.10;;;8.32;;
63906;SDS011;50075;49.484;11.238;2022-10-31T06:39:53;27.23;;;8.35;;
63906;SDS011;50075;49.484;11.238;2022-10-31T06:42:18;31.58;;;8.63;;
63906;SDS011;50075;49.484;11.238;2022-10-31T06:44:44;30.92;;;8.45;;
63906;SDS011;50075;49.484;11.238;2022-10-31T06:47:09;26.58;;;8.27;;
63906;SDS011;50075;49.484;11.238;2022-10-31T06:49:34;34.13;;;9.82;;
63906;SDS011;50075;49.484;11.238;2022-10-31T06:52:00;26.85;;;8.80;;
63906;SDS011;50075;49.484;11.238;2022-10-31T06:54:25;33.05;;;8.90;;
63906;SDS011;50075;49.484;11.238;2022-10-31T06:56:51;33.40;;;9.63;;
63906;SDS011;50075;49.484;11.238;2022-10-31T06:59:16;30.50;;;9.75;;
63906;SDS011;50075;49.484;11.238;2022-10-31T07:01:41;31.75;;;9.27;;
63906;SDS011;50075;49.484;11.238;2022-10-31T07:04:10;34.05;;;9.85;;
63906;SDS011;50075;49.484;11.238;2022-10-31T07:06:36;41.97;;;9.40;;
63906;SDS011;50075;49.484;11.238;2022-10-31T07:09:01;137.57;;;14.60;;
63906;SDS011;50075;49.484;11.238;2022-10-31T07:11:26;95.13;;;12.43;;
63906;SDS011;50075;49.484;11.238;2022-10-31T07:13:52;1999.90;;;142.65;;
63906;SDS011;50075;49.484;11.238;2022-10-31T07:16:17;1999.90;;;343.20;;
63906;SDS011;50075;49.484;11.238;2022-10-31T07:18:42;1430.00;;;64.07;;
63906;SDS011;50075;49.484;11.238;2022-10-31T07:21:08;614.92;;;34.55;;
63906;SDS011;50075;49.484;11.238;2022-10-31T07:23:33;45.72;;;9.57;;
63906;SDS011;50075;49.484;11.238;2022-10-31T07:25:58;29.40;;;7.57;;
63906;SDS011;50075;49.484;11.238;2022-10-31T07:28:24;26.45;;;8.10;;
63906;SDS011;50075;49.484;11.238;2022-10-31T07:30:51;30.63;;;8.73;;
63906;SDS011;50075;49.484;11.238;2022-10-31T07:33:18;20.73;;;6.97;;
63906;SDS011;50075;49.484;11.238;2022-10-31T07:35:43;23.20;;;7.40;;
63906;SDS011;50075;49.484;11.238;2022-10-31T07:38:09;25.15;;;7.32;;
63906;SDS011;50075;49.484;11.238;2022-10-31T07:40:36;17.95;;;6.38;;
63906;SDS011;50075;49.484;11.238;2022-10-31T07:43:01;24.92;;;7.70;;
63906;SDS011;50075;49.484;11.238;2022-10-31T07:45:27;24.58;;;7.45;;
63906;SDS011;50075;49.484;11.238;2022-10-31T07:47:52;18.17;;;6.25;;
63906;SDS011;50075;49.484;11.238;2022-10-31T07:50:25;20.15;;;6.55;;
63906;SDS011;50075;49.484;11.238;2022-10-31T07:55:31;21.13;;;6.50;;
63906;SDS011;50075;49.484;11.238;2022-10-31T07:57:58;20.65;;;6.97;;
63906;SDS011;50075;49.484;11.238;2022-10-31T08:00:25;23.70;;;6.72;;
63906;SDS011;50075;49.484;11.238;2022-10-31T08:03:00;24.15;;;7.03;;
63906;SDS011;50075;49.484;11.238;2022-10-31T08:05:27;24.17;;;6.82;;
63906;SDS011;50075;49.484;11.238;2022-10-31T08:07:53;23.65;;;6.47;;
63906;SDS011;50075;49.484;11.238;2022-10-31T08:10:18;28.45;;;6.82;;
63906;SDS011;50075;49.484;11.238;2022-10-31T08:12:44;22.25;;;6.75;;
63906;SDS011;50075;49.484;11.238;2022-10-31T08:15:10;25.48;;;6.95;;
63906;SDS011;50075;49.484;11.238;2022-10-31T08:17:35;29.98;;;7.10;;
63906;SDS011;50075;49.484;11.238;2022-10-31T08:20:01;17.63;;;5.93;;
63906;SDS011;50075;49.484;11.238;2022-10-31T08:22:27;24.08;;;6.53;;
63906;SDS011;50075;49.484;11.238;2022-10-31T08:24:52;24.23;;;7.30;;
63906;SDS011;50075;49.484;11.238;2022-10-31T08:27:18;26.85;;;7.13;;
63906;SDS011;50075;49.484;11.238;2022-10-31T08:29:43;26.67;;;7.15;;
63906;SDS011;50075;49.484;11.238;2022-10-31T08:32:08;23.27;;;6.07;;
63906;SDS011;50075;49.484;11.238;2022-10-31T08:34:34;27.80;;;7.55;;
63906;SDS011;50075;49.484;11.238;2022-10-31T08:36:59;22.02;;;6.63;;
63906;SDS011;50075;49.484;11.238;2022-10-31T08:39:24;24.85;;;6.75;;
63906;SDS011;50075;49.484;11.238;2022-10-31T08:41:50;24.90;;;6.95;;
63906;SDS011;50075;49.484;11.238;2022-10-31T08:44:15;24.73;;;6.68;;
63906;SDS011;50075;49.484;11.238;2022-10-31T08:46:41;20.40;;;6.32;;
63906;SDS011;50075;49.484;11.238;2022-10-31T08:49:06;20.85;;;6.50;;
63906;SDS011;50075;49.484;11.238;2022-10-31T08:51:32;20.35;;;6.35;;
63906;SDS011;50075;49.484;11.238;2022-10-31T08:53:57;24.50;;;6.35;;
63906;SDS011;50075;49.484;11.238;2022-10-31T08:56:22;22.33;;;6.22;;
63906;SDS011;50075;49.484;11.238;2022-10-31T08:58:48;24.73;;;6.97;;
63906;SDS011;50075;49.484;11.238;2022-10-31T09:01:14;23.30;;;6.72;;
63906;SDS011;50075;49.484;11.238;2022-10-31T09:03:39;21.65;;;5.93;;
63906;SDS011;50075;49.484;11.238;2022-10-31T09:06:04;23.85;;;6.32;;
63906;SDS011;50075;49.484;11.238;2022-10-31T09:08:33;26.48;;;6.47;;
63906;SDS011;50075;49.484;11.238;2022-10-31T09:10:59;23.65;;;6.15;;
63906;SDS011;50075;49.484;11.238;2022-10-31T09:13:25;24.15;;;7.18;;
63906;SDS011;50075;49.484;11.238;2022-10-31T09:15:51;16.83;;;5.90;;
63906;SDS011;50075;49.484;11.238;2022-10-31T09:18:19;28.27;;;6.90;;
63906;SDS011;50075;49.484;11.238;2022-10-31T09:20:46;25.50;;;6.45;;
63906;SDS011;50075;49.484;11.238;2022-10-31T09:23:14;20.60;;;6.20;;
63906;SDS011;50075;49.484;11.238;2022-10-31T09:25:43;20.65;;;5.90;;
63906;SDS011;50075;49.484;11.238;2022-10-31T09:28:11;29.00;;;7.70;;
63906;SDS011;50075;49.484;11.238;2022-10-31T09:30:37;17.67;;;6.10;;
63906;SDS011;50075;49.484;11.238;2022-10-31T09:33:08;18.70;;;6.00;;
63906;SDS011;50075;49.484;11.238;2022-10-31T09:35:36;25.90;;;6.80;;
63906;SDS011;50075;49.484;11.238;2022-10-31T09:38:02;31.17;;;8.32;;
63906;SDS011;50075;49.484;11.238;2022-10-31T09:40:34;30.08;;;7.45;;
63906;SDS011;50075;49.484;11.238;2022-10-31T09:45:41;27.20;;;7.07;;
63906;SDS011;50075;49.484;11.238;2022-10-31T09:51:06;21.58;;;6.28;;
63906;SDS011;50075;49.484;11.238;2022-10-31T09:53:42;35.35;;;7.07;;
63906;SDS011;50075;49.484;11.238;2022-10-31T09:56:15;27.45;;;6.68;;
63906;SDS011;50075;49.484;11.238;2022-10-31T09:58:48;34.88;;;7.65;;
63906;SDS011;50075;49.484;11.238;2022-10-31T10:01:25;23.40;;;6.97;;
63906;SDS011;50075;49.484;11.238;2022-10-31T10:04:01;23.38;;;7.57;;
63906;SDS011;50075;49.484;11.238;2022-10-31T10:06:39;23.90;;;6.60;;
63906;SDS011;50075;49.484;11.238;2022-10-31T10:09:09;24.43;;;6.77;;
63906;SDS011;50075;49.484;11.238;2022-10-31T10:17:11;21.77;;;5.88;;
63906;SDS011;50075;49.484;11.238;2022-10-31T10:30:22;20.42;;;6.55;;
63906;SDS011;50075;49.484;11.238;2022-10-31T10:32:57;23.88;;;6.05;;
63906;SDS011;50075;49.484;11.238;2022-10-31T10:35:29;21.52;;;5.70;;
63906;SDS011;50075;49.484;11.238;2022-10-31T10:38:02;20.23;;;5.65;;
63906;SDS011;50075;49.484;11.238;2022-10-31T10:40:36;19.17;;;6.03;;
63906;SDS011;50075;49.484;11.238;2022-10-31T10:48:46;22.00;;;6.55;;
63906;SDS011;50075;49.484;11.238;2022-10-31T10:59:36;22.13;;;6.60;;
63906;SDS011;50075;49.484;11.238;2022-10-31T11:02:02;19.65;;;5.70;;
63906;SDS011;50075;49.484;11.238;2022-10-31T11:04:34;26.15;;;6.55;;
63906;SDS011;50075;49.484;11.238;2022-10-31T11:07:07;22.15;;;5.68;;
63906;SDS011;50075;49.484;11.238;2022-10-31T11:09:34;26.15;;;6.60;;
63906;SDS011;50075;49.484;11.238;2022-10-31T11:12:08;21.08;;;5.88;;
63906;SDS011;50075;49.484;11.238;2022-10-31T11:14:45;29.17;;;6.53;;
63906;SDS011;50075;49.484;11.238;2022-10-31T11:17:19;24.17;;;6.20;;
63906;SDS011;50075;49.484;11.238;2022-10-31T11:19:59;20.88;;;5.32;;
63906;SDS011;50075;49.484;11.238;2022-10-31T11:22:25;20.73;;;5.43;;
63906;SDS011;50075;49.484;11.238;2022-10-31T11:24:51;23.95;;;5.75;;
63906;SDS011;50075;49.484;11.238;2022-10-31T11:27:20;18.17;;;5.15;;
63906;SDS011;50075;49.484;11.238;2022-10-31T11:29:47;24.52;;;6.40;;
63906;SDS011;50075;49.484;11.238;2022-10-31T11:32:20;20.13;;;5.50;;
63906;SDS011;50075;49.484;11.238;2022-10-31T11:34:48;20.10;;;5.70;;
63906;SDS011;50075;49.484;11.238;2022-10-31T11:37:19;21.92;;;5.60;;
63906;SDS011;50075;49.484;11.238;2022-10-31T11:39:58;21.95;;;5.65;;
63906;SDS011;50075;49.484;11.238;2022-10-31T11:42:27;23.65;;;5.65;;
63906;SDS011;50075;49.484;11.238;2022-10-31T11:45:05;23.10;;;5.95;;
63906;SDS011;50075;49.484;11.238;2022-10-31T11:47:40;26.42;;;5.60;;
63906;SDS011;50075;49.484;11.238;2022-10-31T11:50:09;25.70;;;5.68;;
63906;SDS011;50075;49.484;11.238;2022-10-31T11:52:42;20.92;;;6.20;;
63906;SDS011;50075;49.484;11.238;2022-10-31T11:57:46;19.77;;;5.53;;
63906;SDS011;50075;49.484;11.238;2022-10-31T12:00:33;18.45;;;5.25;;
63906;SDS011;50075;49.484;11.238;2022-10-31T12:03:15;20.75;;;4.93;;
63906;SDS011;50075;49.484;11.238;2022-10-31T12:08:36;20.35;;;5.07;;
63906;SDS011;50075;49.484;11.238;2022-10-31T12:11:23;18.25;;;5.15;;
63906;SDS011;50075;49.484;11.238;2022-10-31T12:14:00;20.23;;;4.93;;
63906;SDS011;50075;49.484;11.238;2022-10-31T12:17:04;18.67;;;4.82;;
63906;SDS011;50075;49.484;11.238;2022-10-31T12:22:56;18.85;;;4.93;;
63906;SDS011;50075;49.484;11.238;2022-10-31T12:44:38;31.48;;;5.38;;
63906;SDS011;50075;49.484;11.238;2022-10-31T12:50:26;16.17;;;4.32;;
63906;SDS011;50075;49.484;11.238;2022-10-31T12:58:34;21.08;;;4.40;;
63906;SDS011;50075;49.484;11.238;2022-10-31T13:01:07;14.73;;;3.88;;
63906;SDS011;50075;49.484;11.238;2022-10-31T13:03:45;22.08;;;4.30;;
63906;SDS011;50075;49.484;11.238;2022-10-31T13:06:18;22.88;;;4.75;;
63906;SDS011;50075;49.484;11.238;2022-10-31T13:08:54;19.93;;;4.30;;
63906;SDS011;50075;49.484;11.238;2022-10-31T13:11:32;16.45;;;3.80;;
63906;SDS011;50075;49.484;11.238;2022-10-31T13:14:10;22.10;;;4.85;;
63906;SDS011;50075;49.484;11.238;2022-10-31T13:16:47;17.58;;;4.13;;
63906;SDS011;50075;49.484;11.238;2022-10-31T13:19:23;20.50;;;4.03;;
63906;SDS011;50075;49.484;11.238;2022-10-31T13:24:27;19.17;;;4.05;;
63906;SDS011;50075;49.484;11.238;2022-10-31T13:26:59;21.95;;;4.68;;
63906;SDS011;50075;49.484;11.238;2022-10-31T13:29:36;20.23;;;4.78;;
63906;SDS011;50075;49.484;11.238;2022-10-31T13:32:08;19.80;;;4.43;;
63906;SDS011;50075;49.484;11.238;2022-10-31T13:34:52;18.60;;;4.30;;
63906;SDS011;50075;49.484;11.238;2022-10-31T13:37:28;19.67;;;4.25;;
63906;SDS011;50075;49.484;11.238;2022-10-31T13:40:05;17.80;;;4.15;;
63906;SDS011;50075;49.484;11.238;2022-10-31T13:45:33;23.00;;;3.95;;
63906;SDS011;50075;49.484;11.238;2022-10-31T13:50:39;19.92;;;4.40;;
63906;SDS011;50075;49.484;11.238;2022-10-31T13:53:40;17.35;;;4.25;;
63906;SDS011;50075;49.484;11.238;2022-10-31T13:56:10;13.82;;;3.65;;
63906;SDS011;50075;49.484;11.238;2022-10-31T13:58:40;15.68;;;3.63;;
63906;SDS011;50075;49.484;11.238;2022-10-31T14:01:20;20.60;;;4.90;;
63906;SDS011;50075;49.484;11.238;2022-10-31T14:04:36;22.38;;;4.65;;
63906;SDS011;50075;49.484;11.238;2022-10-31T14:09:23;25.50;;;4.57;;
63906;SDS011;50075;49.484;11.238;2022-10-31T14:15:24;22.05;;;5.13;;
63906;SDS011;50075;49.484;11.238;2022-10-31T14:17:53;54.72;;;6.20;;
63906;SDS011;50075;49.484;11.238;2022-10-31T14:22:47;35.30;;;5.82;;
63906;SDS011;50075;49.484;11.238;2022-10-31T14:25:33;23.73;;;4.65;;
63906;SDS011;50075;49.484;11.238;2022-10-31T14:28:17;38.00;;;7.18;;
63906;SDS011;50075;49.484;11.238;2022-10-31T14:30:52;23.35;;;5.28;;
63906;SDS011;50075;49.484;11.238;2022-10-31T14:33:22;25.70;;;5.10;;
63906;SDS011;50075;49.484;11.238;2022-10-31T14:39:04;26.10;;;5.07;;
63906;SDS011;50075;49.484;11.238;2022-10-31T14:47:51;23.83;;;6.13;;
63906;SDS011;50075;49.484;11.238;2022-10-31T14:50:29;19.63;;;4.97;;
63906;SDS011;50075;49.484;11.238;2022-10-31T14:53:03;24.95;;;5.32;;
63906;SDS011;50075;49.484;11.238;2022-10-31T14:55:31;25.63;;;5.20;;
63906;SDS011;50075;49.484;11.238;2022-10-31T14:58:01;29.45;;;5.75;;
63906;SDS011;50075;49.484;11.238;2022-10-31T15:00:30;21.20;;;4.97;;
63906;SDS011;50075;49.484;11.238;2022-10-31T15:05:35;23.20;;;4.57;;
63906;SDS011;50075;49.484;11.238;2022-10-31T15:08:13;27.45;;;5.78;;
63906;SDS011;50075;49.484;11.238;2022-10-31T15:10:51;23.58;;;4.90;;
63906;SDS011;50075;49.484;11.238;2022-10-31T15:13:17;29.08;;;5.95;;
63906;SDS011;50075;49.484;11.238;2022-10-31T15:15:44;26.15;;;5.28;;
63906;SDS011;50075;49.484;11.238;2022-10-31T15:18:17;20.70;;;5.53;;
63906;SDS011;50075;49.484;11.238;2022-10-31T15:20:46;112.60;;;11.20;;
63906;SDS011;50075;49.484;11.238;2022-10-31T15:23:15;27.98;;;6.22;;
63906;SDS011;50075;49.484;11.238;2022-10-31T15:25:44;31.13;;;5.95;;
63906;SDS011;50075;49.484;11.238;2022-10-31T15:28:15;35.38;;;6.60;;
63906;SDS011;50075;49.484;11.238;2022-10-31T15:30:51;32.50;;;5.70;;
63906;SDS011;50075;49.484;11.238;2022-10-31T15:33:19;23.00;;;5.15;;
63906;SDS011;50075;49.484;11.238;2022-10-31T15:35:57;26.85;;;4.85;;
63906;SDS011;50075;49.484;11.238;2022-10-31T15:38:27;37.83;;;7.00;;
63906;SDS011;50075;49.484;11.238;2022-10-31T15:43:32;33.55;;;5.40;;
63906;SDS011;50075;49.484;11.238;2022-10-31T15:46:01;20.05;;;5.00;;
63906;SDS011;50075;49.484;11.238;2022-10-31T15:48:28;20.58;;;4.70;;
63906;SDS011;50075;49.484;11.238;2022-10-31T15:50:56;23.95;;;5.53;;
63906;SDS011;50075;49.484;11.238;2022-10-31T15:55:58;29.77;;;5.82;;
63906;SDS011;50075;49.484;11.238;2022-10-31T15:58:25;30.92;;;5.80;;
63906;SDS011;50075;49.484;11.238;2022-10-31T16:01:00;35.38;;;7.20;;
63906;SDS011;50075;49.484;11.238;2022-10-31T16:03:30;23.20;;;5.78;;
63906;SDS011;50075;49.484;11.238;2022-10-31T16:05:58;27.23;;;6.47;;
63906;SDS011;50075;49.484;11.238;2022-10-31T16:10:54;24.00;;;6.18;;
63906;SDS011;50075;49.484;11.238;2022-10-31T16:13:23;19.45;;;4.90;;
63906;SDS011;50075;49.484;11.238;2022-10-31T16:15:54;27.40;;;6.22;;
63906;SDS011;50075;49.484;11.238;2022-10-31T16:18:24;30.73;;;6.13;;
63906;SDS011;50075;49.484;11.238;2022-10-31T16:20:52;27.80;;;6.15;;
63906;SDS011;50075;49.484;11.238;2022-10-31T16:23:20;26.90;;;6.13;;
63906;SDS011;50075;49.484;11.238;2022-10-31T16:25:51;28.40;;;6.97;;
63906;SDS011;50075;49.484;11.238;2022-10-31T16:28:18;23.80;;;5.57;;
63906;SDS011;50075;49.484;11.238;2022-10-31T16:30:44;27.33;;;6.20;;
63906;SDS011;50075;49.484;11.238;2022-10-31T16:35:54;26.52;;;6.78;;
63906;SDS011;50075;49.484;11.238;2022-10-31T16:38:21;39.03;;;7.82;;
63906;SDS011;50075;49.484;11.238;2022-10-31T16:40:47;34.53;;;7.25;;
63906;SDS011;50075;49.484;11.238;2022-10-31T16:43:14;31.73;;;6.97;;
63906;SDS011;50075;49.484;11.238;2022-10-31T16:45:49;22.67;;;5.88;;
63906;SDS011;50075;49.484;11.238;2022-10-31T16:48:16;25.70;;;5.70;;
63906;SDS011;50075;49.484;11.238;2022-10-31T16:50:47;35.97;;;7.20;;
63906;SDS011;50075;49.484;11.238;2022-10-31T16:53:14;29.20;;;6.32;;
63906;SDS011;50075;49.484;11.238;2022-10-31T16:55:41;29.48;;;6.50;;
63906;SDS011;50075;49.484;11.238;2022-10-31T16:58:12;18.50;;;5.28;;
63906;SDS011;50075;49.484;11.238;2022-10-31T17:00:41;27.20;;;7.37;;
63906;SDS011;50075;49.484;11.238;2022-10-31T17:03:07;25.10;;;7.60;;
63906;SDS011;50075;49.484;11.238;2022-10-31T17:05:34;28.08;;;8.20;;
63906;SDS011;50075;49.484;11.238;2022-10-31T17:07:59;27.73;;;8.05;;